createdAt,value
2022-08-02T00:04:39.602Z,4.4
2022-08-02T00:10:35.324Z,4.8
2022-08-02T00:16:42.306Z,8.3
2022-08-02T00:22:33.454Z,6
2022-08-02T00:28:32.111Z,6.4
2022-08-02T00:34:39.710Z,4.5
2022-08-02T00:40:29.643Z,5.8
2022-08-02T00:46:21.858Z,4.9
2022-08-02T00:52:13.581Z,4.7
2022-08-02T00:58:06.110Z,5.4
2022-08-02T01:03:57.616Z,5.7
2022-08-02T01:09:50.492Z,4.7
2022-08-02T01:15:42.544Z,5.3
2022-08-02T01:21:35.524Z,6.6
2022-08-02T01:27:27.601Z,6.1
2022-08-02T01:33:18.396Z,6.7
2022-08-02T01:39:09.806Z,5.4
2022-08-02T01:45:15.167Z,6.7
2022-08-02T01:51:06.533Z,5.3
2022-08-02T01:56:57.494Z,6.3
2022-08-02T02:02:50.891Z,6
2022-08-02T02:08:43.254Z,6.6
2022-08-02T02:14:35.456Z,4.8
2022-08-02T02:20:27.706Z,5.3
2022-08-02T02:26:33.134Z,6.8
2022-08-02T02:32:26.935Z,6.6
2022-08-02T02:38:18.129Z,6.8
2022-08-02T02:44:09.431Z,7.8
2022-08-02T02:50:03.059Z,7.2
2022-08-02T02:56:07.209Z,3.9
2022-08-02T03:02:02.456Z,6.4
2022-08-02T03:07:55.162Z,7.2
2022-08-02T03:13:45.539Z,6.1
2022-08-02T03:19:38.045Z,4.9
2022-08-02T03:25:29.302Z,5.9
2022-08-02T03:31:20.677Z,6.9
2022-08-02T03:37:12.715Z,6.1
2022-08-02T03:43:05.678Z,6.8
2022-08-02T03:48:57.697Z,7.7
2022-08-02T03:54:50.906Z,6.1
2022-08-02T04:00:41.781Z,5.7
2022-08-02T04:06:34.427Z,5.8
2022-08-02T04:12:29.327Z,5.7
2022-08-02T04:18:20.209Z,6
2022-08-02T04:24:25.939Z,7.3
2022-08-02T04:30:16.013Z,5.2
2022-08-02T04:36:08.723Z,7.4
2022-08-02T04:42:02.499Z,10.3
2022-08-02T04:48:09.813Z,10
2022-08-02T04:54:13.227Z,12.6
2022-08-02T05:00:02.824Z,11.1
2022-08-02T05:05:55.583Z,9.1
2022-08-02T05:11:57.975Z,9.4
2022-08-02T05:17:52.955Z,9.7
2022-08-02T05:23:44.328Z,9.6
2022-08-02T05:29:35.571Z,10.7
2022-08-02T05:35:27.344Z,8.3
2022-08-02T05:41:19.248Z,10.1
2022-08-02T05:47:11.744Z,7.4
2022-08-02T05:53:03.077Z,8
2022-08-02T05:58:57.050Z,7.1
2022-08-02T06:04:50.611Z,7.9
2022-08-02T06:10:44.333Z,8.5
2022-08-02T06:16:47.670Z,7.8
2022-08-02T06:22:43.246Z,6.5
2022-08-02T07:08:11.853Z,7
2022-08-02T07:14:04.594Z,8.3
2022-08-02T07:19:56.369Z,8.2
2022-08-02T07:26:12.259Z,6.5
2022-08-02T07:32:08.357Z,8.7
2022-08-02T07:38:10.641Z,6.3
2022-08-02T07:44:02.586Z,7.4
2022-08-02T07:56:37.420Z,5.7
2022-08-02T08:02:34.327Z,7.8
2022-08-02T08:08:36.947Z,6.9
2022-08-02T08:15:10.188Z,5.9
2022-08-02T08:21:19.447Z,5.9
2022-08-02T08:27:16.452Z,5.3
2022-08-02T08:33:35.243Z,6.1
2022-08-02T08:39:34.842Z,6.6
2022-08-02T08:46:06.054Z,7
2022-08-02T08:52:27.214Z,7.2
2022-08-02T08:58:41.520Z,5.1
2022-08-02T09:05:07.971Z,5.9
2022-08-02T09:11:11.494Z,5.7
2022-08-02T09:17:11.482Z,3.6
2022-08-02T09:23:11.077Z,5.6
2022-08-02T09:29:10.772Z,6.2
2022-08-02T09:35:12.641Z,3.8
2022-08-02T09:41:34.405Z,4.9
2022-08-02T09:54:26.753Z,4
2022-08-02T10:07:56.062Z,2.9
2022-08-02T10:20:32.317Z,3.5
2022-08-02T10:26:52.503Z,6.8
2022-08-02T12:30:04.468Z,2.5
2022-08-02T12:35:55.045Z,3.4
2022-08-02T12:42:00.436Z,3.7
2022-08-02T12:47:51.178Z,2.5
2022-08-02T12:53:44.406Z,4.7
2022-08-02T12:59:48.992Z,2.6
2022-08-02T13:06:50.513Z,2.5
2022-08-02T13:12:39.125Z,4.2
2022-08-02T13:18:36.073Z,3.3
2022-08-02T13:25:00.739Z,4.1
2022-08-02T13:30:48.870Z,4.7
2022-08-02T13:36:41.810Z,2.5
2022-08-02T13:42:33.511Z,3.9
2022-08-02T13:48:25.516Z,2.3
2022-08-02T13:54:16.450Z,3.1
2022-08-02T14:00:18.086Z,5.5
2022-08-02T14:06:26.142Z,2.6
2022-08-02T14:12:21.334Z,5.7
2022-08-02T14:18:12.879Z,3.3
2022-08-02T14:24:04.599Z,3.6
2022-08-02T14:30:05.490Z,2.5
2022-08-02T14:36:08.955Z,3.3
2022-08-02T14:42:06.764Z,3.2
2022-08-02T14:47:58.541Z,2.1
2022-08-02T14:54:14.578Z,3.6
2022-08-02T15:00:06.612Z,4
2022-08-02T15:05:58.993Z,2.3
2022-08-02T15:11:53.756Z,2.9
2022-08-02T15:18:00.456Z,2.6
2022-08-02T15:23:50.578Z,3.1
2022-08-02T15:29:42.314Z,2.4
2022-08-02T15:35:33.312Z,3.7
2022-08-02T15:41:24.678Z,3.3
2022-08-02T15:47:17.059Z,2.2
2022-08-02T15:53:08.360Z,2.4
2022-08-02T15:59:03.477Z,2.7
2022-08-02T16:04:54.192Z,2.5
2022-08-02T16:10:45.591Z,2.6
2022-08-02T16:16:37.107Z,4.3
2022-08-02T16:22:27.223Z,3.1
2022-08-02T16:28:17.583Z,2.6
2022-08-02T16:34:07.825Z,5.8
2022-08-02T16:40:03.948Z,3.5
2022-08-02T16:45:56.106Z,3.6
2022-08-02T16:51:46.684Z,3
2022-08-02T16:57:58.264Z,3.3
2022-08-02T17:04:01.891Z,4.7
2022-08-02T17:10:13.136Z,2.8
2022-08-02T17:16:30.353Z,3.2
2022-08-02T17:36:31.156Z,3.5
2022-08-02T17:42:53.630Z,2.2
2022-08-02T17:49:17.724Z,2.2
2022-08-02T17:55:19.600Z,2.5
2022-08-02T18:01:35.151Z,3.8
2022-08-02T18:08:04.885Z,5.1
2022-08-02T18:14:00.143Z,3.2
2022-08-02T18:20:15.652Z,3.7
2022-08-02T18:26:04.227Z,5.6
2022-08-02T18:31:59.343Z,3.2
2022-08-02T18:38:13.085Z,3.1
2022-08-02T18:44:05.584Z,3.6
2022-08-02T18:50:01.667Z,4.2
2022-08-02T18:56:07.921Z,5.8
2022-08-02T19:02:08.624Z,4
2022-08-02T19:08:02.132Z,5.9
2022-08-02T19:20:25.751Z,6.2
2022-08-02T19:26:21.459Z,4.8
2022-08-02T19:33:11.410Z,6
2022-08-02T19:39:41.634Z,5.7
2022-08-02T20:51:40.576Z,3.4
2022-08-02T21:11:19.248Z,5.2
2022-08-02T21:17:58.669Z,5.8
2022-08-02T21:24:01.835Z,4.2
2022-08-02T21:29:57.947Z,3.5
2022-08-02T21:35:58.694Z,4
2022-08-02T21:41:51.773Z,5.4
2022-08-02T21:47:43.612Z,3.5
2022-08-02T21:54:22.528Z,4.2
2022-08-02T22:00:12.246Z,3
2022-08-02T22:06:02.342Z,7.3
2022-08-02T22:11:56.281Z,4.6
2022-08-02T22:18:06.535Z,6.3
2022-08-02T22:24:02.468Z,4.8
2022-08-02T22:30:04.879Z,4.6
2022-08-02T22:35:57.264Z,5.1
2022-08-02T22:42:10.838Z,4.7
2022-08-02T22:48:04.450Z,3.7
2022-08-02T22:53:55.451Z,4.6
2022-08-02T22:59:50.043Z,4.3
2022-08-02T23:05:41.151Z,4.2
2022-08-02T23:11:33.195Z,4.6
2022-08-02T23:17:22.784Z,5
2022-08-02T23:23:16.455Z,4.4
2022-08-02T23:29:07.493Z,4.9
2022-08-02T23:34:57.581Z,3.9
2022-08-02T23:40:46.845Z,5.4
2022-08-02T23:46:36.607Z,3.8
2022-08-02T23:52:26.431Z,5.7
2022-08-02T23:58:18.832Z,4.3
